createdAt,value
2019-01-29T00:00:27.510Z,990.6
2019-01-29T00:01:27.528Z,990.63
2019-01-29T00:02:27.542Z,990.58
2019-01-29T00:03:27.551Z,990.62
2019-01-29T00:04:27.566Z,990.6
2019-01-29T00:05:27.582Z,990.62
2019-01-29T00:06:27.592Z,990.61
2019-01-29T00:07:27.606Z,990.62
2019-01-29T00:08:27.620Z,990.59
2019-01-29T00:09:27.635Z,990.6
2019-01-29T00:10:27.647Z,990.67
2019-01-29T00:11:27.664Z,990.64
2019-01-29T00:13:27.689Z,990.69
2019-01-29T00:14:27.702Z,990.71
2019-01-29T00:15:27.716Z,990.69
2019-01-29T00:16:27.731Z,990.72
2019-01-29T00:17:27.744Z,990.74
2019-01-29T00:18:27.758Z,990.75
2019-01-29T00:19:27.771Z,990.78
2019-01-29T00:20:27.785Z,990.83
2019-01-29T00:21:27.799Z,990.84
2019-01-29T00:22:33.179Z,990.81
2019-01-29T00:23:27.826Z,990.81
2019-01-29T00:24:27.841Z,990.83
2019-01-29T00:25:27.854Z,990.88
2019-01-29T00:26:27.870Z,990.88
2019-01-29T00:27:27.882Z,990.93
2019-01-29T00:29:27.909Z,990.86
2019-01-29T00:30:27.923Z,990.9
2019-01-29T00:31:27.937Z,990.98
2019-01-29T00:32:27.950Z,990.97
2019-01-29T00:33:27.964Z,990.99
2019-01-29T00:34:27.979Z,991.02
2019-01-29T00:35:27.991Z,991
2019-01-29T00:36:28.004Z,991
2019-01-29T00:37:28.018Z,991.03
2019-01-29T00:38:28.032Z,991.04
2019-01-29T00:39:28.045Z,991.09
2019-01-29T00:40:28.059Z,991.05
2019-01-29T00:41:28.073Z,991.06
2019-01-29T00:42:28.087Z,991.15
2019-01-29T00:43:28.100Z,991.15
2019-01-29T00:45:28.127Z,991.14
2019-01-29T00:46:28.143Z,991.16
2019-01-29T00:47:28.155Z,991.21
2019-01-29T00:48:28.169Z,991.18
2019-01-29T00:49:28.182Z,991.2
2019-01-29T00:50:28.196Z,991.21
2019-01-29T00:51:28.210Z,991.21
2019-01-29T00:52:28.226Z,991.25
2019-01-29T00:53:28.238Z,991.29
2019-01-29T00:54:28.251Z,991.3
2019-01-29T00:55:28.265Z,991.29
2019-01-29T00:56:28.278Z,991.31
2019-01-29T00:57:28.296Z,991.33
2019-01-29T00:58:28.306Z,991.37
2019-01-29T01:00:28.334Z,991.44
2019-01-29T01:01:28.347Z,991.45
2019-01-29T01:02:28.361Z,991.48
2019-01-29T01:03:28.376Z,991.46
2019-01-29T01:04:28.389Z,991.47
2019-01-29T01:05:28.402Z,991.53
2019-01-29T01:06:28.415Z,991.52
2019-01-29T01:07:28.532Z,991.52
2019-01-29T01:08:28.442Z,991.56
2019-01-29T01:09:28.457Z,991.59
2019-01-29T01:10:28.470Z,991.58
2019-01-29T01:11:28.484Z,991.58
2019-01-29T01:12:28.497Z,991.54
2019-01-29T01:13:28.514Z,991.7
2019-01-29T01:14:28.525Z,991.62
2019-01-29T01:15:28.538Z,991.63
2019-01-29T01:16:28.558Z,991.67
2019-01-29T01:17:28.566Z,991.74
2019-01-29T01:18:28.579Z,991.71
2019-01-29T01:19:28.592Z,991.69
2019-01-29T01:20:28.606Z,991.67
2019-01-29T01:21:28.620Z,991.68
2019-01-29T01:22:28.634Z,991.73
2019-01-29T01:23:28.647Z,991.75
2019-01-29T01:24:28.661Z,991.74
2019-01-29T01:25:28.674Z,991.75
2019-01-29T01:26:28.688Z,991.76
2019-01-29T01:27:28.701Z,991.77
2019-01-29T01:28:28.715Z,991.81
2019-01-29T01:29:28.729Z,991.8
2019-01-29T01:30:28.743Z,991.84
2019-01-29T01:32:28.769Z,991.85
2019-01-29T01:33:28.784Z,991.87
2019-01-29T01:34:28.799Z,991.92
2019-01-29T01:35:28.810Z,991.88
2019-01-29T01:36:28.824Z,991.93
2019-01-29T01:37:28.838Z,991.99
2019-01-29T01:38:28.854Z,992.02
2019-01-29T01:39:28.864Z,992.07
2019-01-29T01:40:28.878Z,992.05
2019-01-29T01:41:28.891Z,992.05
2019-01-29T01:42:28.905Z,992.14
2019-01-29T01:43:28.918Z,992.13
2019-01-29T01:44:28.933Z,992.11
2019-01-29T01:45:28.945Z,992.15
2019-01-29T01:46:28.959Z,992.16
2019-01-29T01:48:28.990Z,992.12
2019-01-29T01:49:29.000Z,992.15
2019-01-29T01:50:29.015Z,992.16
2019-01-29T01:51:29.027Z,992.19
2019-01-29T01:52:29.040Z,992.23
2019-01-29T01:53:29.056Z,992.27
2019-01-29T01:54:29.068Z,992.2
2019-01-29T01:55:29.081Z,992.21
2019-01-29T01:56:29.094Z,992.25
2019-01-29T01:57:29.107Z,992.27
2019-01-29T01:58:29.121Z,992.22
2019-01-29T01:59:29.135Z,992.27
2019-01-29T02:00:29.216Z,992.27
2019-01-29T02:01:29.162Z,992.3
2019-01-29T02:02:29.175Z,992.3
2019-01-29T02:04:29.205Z,992.35
2019-01-29T02:05:29.215Z,992.4
2019-01-29T02:06:29.229Z,992.46
2019-01-29T02:07:29.242Z,992.43
2019-01-29T02:08:29.260Z,992.47
2019-01-29T02:09:29.269Z,992.49
2019-01-29T02:10:29.282Z,992.44
2019-01-29T02:11:29.295Z,992.48
2019-01-29T02:12:29.309Z,992.46
2019-01-29T02:13:29.322Z,992.47
2019-01-29T02:14:29.335Z,992.56
2019-01-29T02:15:29.349Z,992.51
2019-01-29T02:16:29.362Z,992.54
2019-01-29T02:17:29.376Z,992.59
2019-01-29T02:18:29.388Z,992.59
2019-01-29T02:20:29.416Z,992.7
2019-01-29T02:21:29.429Z,992.65
2019-01-29T02:22:29.442Z,992.66
2019-01-29T02:23:29.456Z,992.69
2019-01-29T02:24:29.469Z,992.66
2019-01-29T02:25:29.482Z,992.74
2019-01-29T02:26:29.495Z,992.74
2019-01-29T02:27:29.508Z,992.71
2019-01-29T02:28:29.522Z,992.7
2019-01-29T02:29:29.536Z,992.8
2019-01-29T02:30:29.550Z,992.74
2019-01-29T02:31:29.562Z,992.77
2019-01-29T02:32:29.577Z,992.79
2019-01-29T02:33:29.589Z,992.86
2019-01-29T02:35:29.618Z,992.82
2019-01-29T02:36:29.629Z,992.92
2019-01-29T02:37:29.644Z,992.92
2019-01-29T02:38:29.657Z,992.95
2019-01-29T02:39:29.670Z,992.9
2019-01-29T02:40:29.682Z,992.95
2019-01-29T02:41:29.696Z,992.97
2019-01-29T02:42:29.711Z,992.96
2019-01-29T02:43:29.721Z,993.02
2019-01-29T02:44:29.736Z,993.05
2019-01-29T02:45:29.750Z,993.05
2019-01-29T02:46:29.763Z,993.08
2019-01-29T02:47:29.774Z,993.06
2019-01-29T02:48:29.787Z,993.08
2019-01-29T02:49:29.800Z,993.12
2019-01-29T02:50:29.815Z,993.12
2019-01-29T02:51:29.826Z,993.21
2019-01-29T02:52:29.842Z,993.24
2019-01-29T02:53:29.854Z,993.18
2019-01-29T02:54:29.866Z,993.24
2019-01-29T02:55:29.881Z,993.2
2019-01-29T02:56:29.900Z,993.33
2019-01-29T02:57:29.907Z,993.29
2019-01-29T02:58:29.920Z,993.3
2019-01-29T02:59:29.932Z,993.35
2019-01-29T03:00:29.946Z,993.35
2019-01-29T03:01:29.960Z,993.4
2019-01-29T03:02:29.973Z,993.37
2019-01-29T03:03:29.985Z,993.43
2019-01-29T03:04:29.998Z,993.47
2019-01-29T03:05:30.012Z,993.46
2019-01-29T03:07:30.037Z,993.51
2019-01-29T03:08:30.052Z,993.53
2019-01-29T03:09:30.063Z,993.5
2019-01-29T03:10:30.076Z,993.6
2019-01-29T03:11:30.090Z,993.61
2019-01-29T03:12:30.102Z,993.58
2019-01-29T03:13:30.117Z,993.6
2019-01-29T03:14:30.128Z,993.56
2019-01-29T03:15:30.255Z,993.64
2019-01-29T03:16:30.154Z,993.68
2019-01-29T03:17:30.167Z,993.69
2019-01-29T03:18:30.184Z,993.72
2019-01-29T03:19:30.194Z,993.75
2019-01-29T03:20:30.307Z,993.77
2019-01-29T03:21:31.530Z,993.79
2019-01-29T03:23:30.254Z,993.88
2019-01-29T03:24:30.258Z,993.85
2019-01-29T03:25:30.277Z,993.92
2019-01-29T03:26:30.285Z,993.91
2019-01-29T03:27:30.296Z,993.9
2019-01-29T03:28:30.314Z,993.95
2019-01-29T03:29:30.323Z,993.94
2019-01-29T03:30:30.342Z,994.02
2019-01-29T03:31:30.494Z,994.08
2019-01-29T03:32:30.367Z,994.03
2019-01-29T03:33:30.378Z,994.05
2019-01-29T03:34:30.389Z,993.98
2019-01-29T03:35:30.401Z,994.1
2019-01-29T03:36:30.414Z,994.09
2019-01-29T03:37:30.427Z,994.09
2019-01-29T03:39:30.452Z,994.22
2019-01-29T03:40:30.465Z,994.18
2019-01-29T03:41:30.478Z,994.2
2019-01-29T03:42:30.490Z,994.2
2019-01-29T03:43:30.504Z,994.29
2019-01-29T03:44:30.517Z,994.31
2019-01-29T03:45:30.530Z,994.36
2019-01-29T03:46:30.542Z,994.27
2019-01-29T03:47:30.555Z,994.36
2019-01-29T03:48:30.568Z,994.32
2019-01-29T03:49:30.582Z,994.35
2019-01-29T03:50:30.644Z,994.37
2019-01-29T03:51:30.607Z,994.34
2019-01-29T03:52:30.620Z,994.39
2019-01-29T03:53:37.759Z,994.39
2019-01-29T03:55:30.657Z,994.37
2019-01-29T03:56:30.671Z,994.37
2019-01-29T03:57:30.683Z,994.39
2019-01-29T03:58:30.697Z,994.42
2019-01-29T03:59:30.710Z,994.46
2019-01-29T04:00:30.721Z,994.4
2019-01-29T04:01:30.734Z,994.4
2019-01-29T04:02:30.747Z,994.52
2019-01-29T04:03:30.763Z,994.46
2019-01-29T04:04:30.772Z,994.5
2019-01-29T04:05:30.785Z,994.55
2019-01-29T04:06:30.799Z,994.54
2019-01-29T04:07:30.812Z,994.54
2019-01-29T04:08:30.824Z,994.57
2019-01-29T04:10:30.851Z,994.55
2019-01-29T04:11:30.862Z,994.59
2019-01-29T04:12:30.875Z,994.63
2019-01-29T04:13:30.890Z,994.59
2019-01-29T04:14:30.903Z,994.64
2019-01-29T04:15:30.913Z,994.65
2019-01-29T04:16:30.927Z,994.67
2019-01-29T04:17:30.939Z,994.71
2019-01-29T04:18:30.951Z,994.67
2019-01-29T04:19:30.963Z,994.76
2019-01-29T04:20:30.978Z,994.73
2019-01-29T04:21:30.990Z,994.75
2019-01-29T04:22:31.002Z,994.81
2019-01-29T04:23:31.019Z,994.81
2019-01-29T04:24:31.027Z,994.83
2019-01-29T04:25:31.061Z,994.87
2019-01-29T04:26:31.052Z,994.92
2019-01-29T04:27:31.065Z,994.87
2019-01-29T04:28:31.078Z,994.84
2019-01-29T04:29:31.093Z,994.87
2019-01-29T04:30:31.102Z,994.91
2019-01-29T04:31:31.116Z,994.94
2019-01-29T04:32:31.129Z,994.98
2019-01-29T04:33:31.141Z,995.02
2019-01-29T04:34:31.190Z,995.01
2019-01-29T04:35:31.166Z,995.04
2019-01-29T04:36:31.179Z,994.96
2019-01-29T04:37:31.194Z,995.07
2019-01-29T04:38:31.205Z,995.04
2019-01-29T04:39:31.217Z,995.02
2019-01-29T04:40:31.230Z,995.02
2019-01-29T04:42:31.256Z,995.12
2019-01-29T04:43:31.267Z,995.09
2019-01-29T04:44:31.279Z,995.02
2019-01-29T04:45:31.293Z,995.07
2019-01-29T04:46:31.306Z,995.06
2019-01-29T04:47:31.317Z,995.08
2019-01-29T04:48:31.329Z,995.15
2019-01-29T04:49:31.342Z,995.11
2019-01-29T04:50:31.355Z,995.16
2019-01-29T04:51:31.367Z,995.19
2019-01-29T04:52:31.381Z,995.23
2019-01-29T04:53:31.413Z,995.18
2019-01-29T04:54:31.406Z,995.24
2019-01-29T04:55:31.427Z,995.25
2019-01-29T04:56:31.433Z,995.37
2019-01-29T04:58:31.457Z,995.29
2019-01-29T04:59:31.467Z,995.35
2019-01-29T05:00:31.483Z,995.4
2019-01-29T05:01:31.493Z,995.4
2019-01-29T05:02:31.505Z,995.42
2019-01-29T05:03:31.520Z,995.4
2019-01-29T05:04:31.531Z,995.44
2019-01-29T05:05:31.544Z,995.48
2019-01-29T05:06:31.555Z,995.43
2019-01-29T05:07:31.568Z,995.44
2019-01-29T05:08:31.581Z,995.45
2019-01-29T05:09:31.594Z,995.44
2019-01-29T05:10:31.607Z,995.45
2019-01-29T05:11:31.618Z,995.47
2019-01-29T05:12:31.632Z,995.48
2019-01-29T05:14:31.659Z,995.53
2019-01-29T05:15:31.668Z,995.51
2019-01-29T05:16:31.681Z,995.51
2019-01-29T05:17:31.693Z,995.43
2019-01-29T05:18:32.200Z,995.55
2019-01-29T05:19:31.718Z,995.53
2019-01-29T05:20:31.731Z,995.55
2019-01-29T05:21:31.745Z,995.57
2019-01-29T05:22:31.756Z,995.57
2019-01-29T05:23:31.769Z,995.62
2019-01-29T05:24:31.782Z,995.58
2019-01-29T05:25:31.793Z,995.65
2019-01-29T05:26:31.806Z,995.68
2019-01-29T05:27:31.821Z,995.69
2019-01-29T05:28:31.830Z,995.72
2019-01-29T05:30:31.856Z,995.64
2019-01-29T05:31:31.869Z,995.76
2019-01-29T05:32:31.881Z,995.78
2019-01-29T05:33:31.893Z,995.83
2019-01-29T05:34:31.906Z,995.79
2019-01-29T05:35:31.918Z,995.84
2019-01-29T05:36:31.931Z,995.74
2019-01-29T05:37:31.943Z,995.75
2019-01-29T05:38:31.956Z,995.75
2019-01-29T05:39:31.967Z,995.81
2019-01-29T05:40:31.980Z,995.87
2019-01-29T05:41:31.993Z,995.91
2019-01-29T05:42:32.006Z,995.88
2019-01-29T05:43:32.021Z,995.96
2019-01-29T05:45:32.044Z,995.93
2019-01-29T05:46:32.064Z,995.94
2019-01-29T05:47:32.068Z,996.01
2019-01-29T05:48:32.080Z,996.01
2019-01-29T05:49:32.094Z,996.03
2019-01-29T05:50:32.105Z,996.04
2019-01-29T05:51:32.118Z,996.11
2019-01-29T05:52:32.130Z,996.08
2019-01-29T05:53:32.143Z,996.06
2019-01-29T05:54:32.158Z,996.06
2019-01-29T05:55:32.167Z,996.13
2019-01-29T05:56:32.179Z,996.19
2019-01-29T05:57:32.192Z,996.16
2019-01-29T05:58:32.204Z,996.15
2019-01-29T05:59:32.217Z,996.19
2019-01-29T06:00:32.230Z,996.17
2019-01-29T06:01:32.241Z,996.22
2019-01-29T06:02:32.253Z,996.24
2019-01-29T06:03:32.266Z,996.22
2019-01-29T06:04:32.277Z,996.26
2019-01-29T06:05:32.290Z,996.26
2019-01-29T06:06:32.302Z,996.22
2019-01-29T06:07:32.315Z,996.26
2019-01-29T06:08:32.329Z,996.35
2019-01-29T06:09:32.339Z,996.28
2019-01-29T06:10:32.355Z,996.38
2019-01-29T06:11:32.364Z,996.31
2019-01-29T06:12:32.375Z,996.35
2019-01-29T06:13:32.388Z,996.41
2019-01-29T06:14:32.400Z,996.41
2019-01-29T06:15:32.420Z,996.39
2019-01-29T06:17:32.436Z,996.48
2019-01-29T06:18:32.451Z,996.47
2019-01-29T06:19:32.460Z,996.43
2019-01-29T06:20:32.476Z,996.53
2019-01-29T06:21:32.485Z,996.56
2019-01-29T06:22:32.498Z,996.55
2019-01-29T06:23:32.520Z,996.54
2019-01-29T06:24:32.522Z,996.59
2019-01-29T06:25:32.540Z,996.59
2019-01-29T06:26:32.545Z,996.68
2019-01-29T06:27:32.557Z,996.64
2019-01-29T06:28:32.571Z,996.7
2019-01-29T06:29:32.582Z,996.69
2019-01-29T06:30:32.593Z,996.69
2019-01-29T06:31:32.605Z,996.73
2019-01-29T06:33:32.630Z,996.83
2019-01-29T06:34:32.642Z,996.82
2019-01-29T06:35:32.654Z,996.77
2019-01-29T06:36:32.671Z,996.85
2019-01-29T06:37:32.678Z,996.82
2019-01-29T06:38:32.690Z,996.86
2019-01-29T06:39:32.702Z,996.91
2019-01-29T06:40:32.714Z,996.92
2019-01-29T06:41:32.725Z,996.95
2019-01-29T06:42:32.738Z,996.97
2019-01-29T06:43:32.750Z,997
2019-01-29T06:44:32.762Z,997.01
2019-01-29T06:45:32.774Z,997
2019-01-29T06:46:32.787Z,997.04
2019-01-29T06:47:32.798Z,997.04
2019-01-29T06:49:32.822Z,997.14
2019-01-29T06:50:32.837Z,997.18
2019-01-29T06:51:32.852Z,997.16
2019-01-29T06:52:32.857Z,997.2
2019-01-29T06:53:32.869Z,997.21
2019-01-29T06:54:34.083Z,997.24
2019-01-29T06:55:32.894Z,997.28
2019-01-29T06:56:32.905Z,997.32
2019-01-29T06:57:32.918Z,997.32
2019-01-29T06:58:32.930Z,997.36
2019-01-29T06:59:32.941Z,997.38
2019-01-29T07:00:32.954Z,997.46
2019-01-29T07:01:32.965Z,997.45
2019-01-29T07:02:32.977Z,997.41
2019-01-29T07:03:32.989Z,997.5
2019-01-29T07:05:33.013Z,997.48
2019-01-29T07:06:33.025Z,997.48
2019-01-29T07:07:33.036Z,997.51
2019-01-29T07:08:33.050Z,997.59
2019-01-29T07:09:33.060Z,997.51
2019-01-29T07:10:33.072Z,997.55
2019-01-29T07:11:33.084Z,997.5
2019-01-29T07:12:33.097Z,997.64
2019-01-29T07:13:33.109Z,997.62
2019-01-29T07:14:33.120Z,997.65
2019-01-29T07:15:33.135Z,997.66
2019-01-29T07:16:33.144Z,997.7
2019-01-29T07:17:33.159Z,997.71
2019-01-29T07:18:33.170Z,997.69
2019-01-29T07:20:33.193Z,997.7
2019-01-29T07:21:33.205Z,997.77
2019-01-29T07:22:33.217Z,997.8
2019-01-29T07:23:33.229Z,997.8
2019-01-29T07:24:33.243Z,997.82
2019-01-29T07:25:33.246Z,997.81
2019-01-29T07:26:33.265Z,997.83
2019-01-29T07:27:33.277Z,997.88
2019-01-29T07:28:33.288Z,997.84
2019-01-29T07:29:33.301Z,997.87
2019-01-29T07:30:33.313Z,997.83
2019-01-29T07:31:33.325Z,997.87
2019-01-29T07:32:33.337Z,997.92
2019-01-29T07:33:33.350Z,997.91
2019-01-29T07:34:33.363Z,997.89
2019-01-29T07:35:33.374Z,997.9
2019-01-29T07:36:33.385Z,997.85
2019-01-29T07:37:33.399Z,997.9
2019-01-29T07:38:33.410Z,997.93
2019-01-29T07:39:33.422Z,997.89
2019-01-29T07:40:33.434Z,997.92
2019-01-29T07:41:33.448Z,997.92
2019-01-29T07:42:33.460Z,997.92
2019-01-29T07:43:33.470Z,997.96
2019-01-29T07:44:33.482Z,997.9
2019-01-29T07:45:33.495Z,997.96
2019-01-29T07:46:33.508Z,998
2019-01-29T07:47:33.519Z,997.98
2019-01-29T07:48:33.532Z,998.01
2019-01-29T07:49:33.543Z,998.06
2019-01-29T07:50:33.556Z,998.02
2019-01-29T07:52:33.580Z,998.07
2019-01-29T07:53:33.592Z,998.03
2019-01-29T07:54:33.664Z,998.04
2019-01-29T07:55:33.617Z,998.03
2019-01-29T07:56:33.634Z,998.07
2019-01-29T07:57:33.642Z,998.06
2019-01-29T07:58:33.653Z,998.13
2019-01-29T07:59:33.666Z,998.17
2019-01-29T08:00:33.679Z,998.15
2019-01-29T08:01:33.692Z,998.16
2019-01-29T08:02:33.703Z,998.2
2019-01-29T08:03:33.716Z,998.21
2019-01-29T08:04:33.728Z,998.13
2019-01-29T08:05:33.740Z,998.18
2019-01-29T08:06:33.754Z,998.2
2019-01-29T08:08:33.787Z,998.19
2019-01-29T08:09:33.791Z,998.23
2019-01-29T08:10:33.804Z,998.2
2019-01-29T08:11:33.816Z,998.24
2019-01-29T08:12:33.828Z,998.26
2019-01-29T08:13:33.845Z,998.25
2019-01-29T08:14:33.854Z,998.27
2019-01-29T08:15:33.867Z,998.29
2019-01-29T08:16:33.880Z,998.26
2019-01-29T08:17:33.892Z,998.23
2019-01-29T08:18:33.905Z,998.25
2019-01-29T08:19:33.919Z,998.3
2019-01-29T08:20:33.930Z,998.28
2019-01-29T08:21:33.942Z,998.34
2019-01-29T08:22:33.956Z,998.33
2019-01-29T08:24:33.980Z,998.34
2019-01-29T08:25:34.059Z,998.34
2019-01-29T08:26:34.007Z,998.36
2019-01-29T08:27:34.019Z,998.39
2019-01-29T08:28:34.032Z,998.44
2019-01-29T08:29:34.045Z,998.46
2019-01-29T08:30:34.060Z,998.45
2019-01-29T08:31:34.070Z,998.46
2019-01-29T08:32:34.083Z,998.47
2019-01-29T08:33:34.096Z,998.49
2019-01-29T08:34:34.108Z,998.43
2019-01-29T08:35:34.121Z,998.53
2019-01-29T08:36:34.134Z,998.47
2019-01-29T08:37:34.148Z,998.51
2019-01-29T08:38:34.160Z,998.5
2019-01-29T08:40:34.185Z,998.53
2019-01-29T08:41:34.199Z,998.56
2019-01-29T08:42:34.211Z,998.57
2019-01-29T08:43:34.223Z,998.61
2019-01-29T08:44:34.236Z,998.67
2019-01-29T08:45:34.249Z,998.61
2019-01-29T08:46:34.262Z,998.56
2019-01-29T08:47:34.275Z,998.53
2019-01-29T08:48:34.288Z,998.57
2019-01-29T08:49:34.299Z,998.55
2019-01-29T08:50:34.313Z,998.63
2019-01-29T08:51:34.325Z,998.6
2019-01-29T08:52:34.339Z,998.62
2019-01-29T08:53:34.354Z,998.63
2019-01-29T08:55:34.378Z,998.65
2019-01-29T08:56:34.391Z,998.62
2019-01-29T08:57:34.402Z,998.68
2019-01-29T08:58:34.418Z,998.72
2019-01-29T08:59:34.429Z,998.69
2019-01-29T09:00:34.441Z,998.71
2019-01-29T09:01:34.453Z,998.65
2019-01-29T09:02:34.476Z,998.69
2019-01-29T09:03:34.482Z,998.67
2019-01-29T09:04:34.492Z,998.68
2019-01-29T09:05:34.504Z,998.69
2019-01-29T09:06:34.518Z,998.71
2019-01-29T09:07:34.530Z,998.77
2019-01-29T09:08:34.544Z,998.77
2019-01-29T09:09:34.556Z,998.74
2019-01-29T09:10:34.569Z,998.74
2019-01-29T09:11:34.583Z,998.75
2019-01-29T09:12:34.594Z,998.81
2019-01-29T09:13:34.607Z,998.85
2019-01-29T09:14:34.619Z,998.84
2019-01-29T09:15:34.637Z,998.83
2019-01-29T09:16:34.646Z,998.89
2019-01-29T09:17:34.659Z,998.86
2019-01-29T09:18:34.671Z,998.88
2019-01-29T09:19:34.684Z,998.88
2019-01-29T09:20:34.698Z,998.86
2019-01-29T09:21:34.711Z,998.86
2019-01-29T09:22:34.723Z,998.94
2019-01-29T09:23:34.736Z,998.9
2019-01-29T09:24:34.749Z,998.97
2019-01-29T09:25:34.761Z,999
2019-01-29T09:27:34.795Z,998.94
2019-01-29T09:28:34.802Z,998.95
2019-01-29T09:29:34.815Z,998.95
2019-01-29T09:30:34.827Z,998.94
2019-01-29T09:31:34.839Z,998.96
2019-01-29T09:32:34.852Z,998.95
2019-01-29T09:33:34.865Z,998.98
2019-01-29T09:34:34.879Z,998.96
2019-01-29T09:35:34.892Z,998.98
2019-01-29T09:36:34.904Z,999.02
2019-01-29T09:37:34.917Z,998.97
2019-01-29T09:38:34.930Z,999.02
2019-01-29T09:39:34.943Z,999.04
2019-01-29T09:40:34.955Z,999.06
2019-01-29T09:41:34.969Z,999.05
2019-01-29T09:43:34.995Z,999.07
2019-01-29T09:44:35.010Z,999.03
2019-01-29T09:45:35.028Z,999.01
2019-01-29T09:46:35.034Z,999.02
2019-01-29T09:47:35.047Z,999.05
2019-01-29T09:48:35.060Z,999.06
2019-01-29T09:49:35.073Z,999.09
2019-01-29T09:50:35.086Z,999.05
2019-01-29T09:51:35.098Z,999.06
2019-01-29T09:52:35.114Z,999.08
2019-01-29T09:53:35.137Z,999.09
2019-01-29T09:54:35.142Z,999.11
2019-01-29T09:55:35.152Z,999.06
2019-01-29T09:56:35.165Z,999.09
2019-01-29T09:57:35.179Z,999.12
2019-01-29T09:59:35.216Z,999.11
2019-01-29T10:00:35.218Z,999.09
2019-01-29T10:01:35.231Z,999.11
2019-01-29T10:02:35.244Z,999.13
2019-01-29T10:03:35.258Z,999.11
2019-01-29T10:04:35.271Z,999.15
2019-01-29T10:05:35.289Z,999.17
2019-01-29T10:06:35.297Z,999.18
2019-01-29T10:07:35.310Z,999.17
2019-01-29T10:08:35.324Z,999.24
2019-01-29T10:09:35.336Z,999.24
2019-01-29T10:10:35.423Z,999.18
2019-01-29T10:11:35.363Z,999.23
2019-01-29T10:12:35.377Z,999.17
2019-01-29T10:13:35.390Z,999.21
2019-01-29T10:15:35.416Z,999.19
2019-01-29T10:16:35.430Z,999.14
2019-01-29T10:17:35.443Z,999.12
2019-01-29T10:18:35.456Z,999.09
2019-01-29T10:19:35.470Z,999.11
2019-01-29T10:20:35.482Z,999.1
2019-01-29T10:21:35.495Z,999.11
2019-01-29T10:22:35.514Z,999.1
2019-01-29T10:23:35.524Z,999.08
2019-01-29T10:24:35.536Z,999.11
2019-01-29T10:25:37.646Z,999.09
2019-01-29T10:26:35.562Z,999.12
2019-01-29T10:27:35.576Z,999.11
2019-01-29T10:28:35.590Z,999.13
2019-01-29T10:30:35.617Z,999.1
2019-01-29T10:31:35.634Z,999.12
2019-01-29T10:32:35.644Z,999.16
2019-01-29T10:33:35.658Z,999.22
2019-01-29T10:34:35.672Z,999.19
2019-01-29T10:35:35.684Z,999.12
2019-01-29T10:36:36.486Z,999.17
2019-01-29T10:37:35.710Z,999.18
2019-01-29T10:38:35.724Z,999.26
2019-01-29T10:39:35.754Z,999.12
2019-01-29T10:40:35.757Z,999.15
2019-01-29T10:41:35.765Z,999.18
2019-01-29T10:42:35.777Z,999.21
2019-01-29T10:43:35.793Z,999.17
2019-01-29T10:44:35.804Z,999.21
2019-01-29T10:45:35.823Z,999.12
2019-01-29T10:46:35.830Z,999.2
2019-01-29T10:47:35.845Z,999.17
2019-01-29T10:48:35.858Z,999.18
2019-01-29T10:49:35.874Z,999.17
2019-01-29T10:50:35.884Z,999.17
2019-01-29T10:51:35.898Z,999.23
2019-01-29T10:52:35.912Z,999.18
2019-01-29T10:53:35.925Z,999.19
2019-01-29T10:54:35.938Z,999.16
2019-01-29T10:55:36.054Z,999.22
2019-01-29T10:56:35.969Z,999.23
2019-01-29T10:57:35.978Z,999.12
2019-01-29T10:58:35.992Z,999.09
2019-01-29T10:59:36.006Z,999.17
2019-01-29T11:00:36.022Z,999.16
2019-01-29T11:02:36.047Z,999.19
2019-01-29T11:03:36.060Z,999.17
2019-01-29T11:04:36.075Z,999.14
2019-01-29T11:05:36.087Z,999.12
2019-01-29T11:06:36.101Z,999.15
2019-01-29T11:07:36.115Z,999.17
2019-01-29T11:08:36.128Z,999.17
2019-01-29T11:09:36.142Z,999.18
2019-01-29T11:10:36.155Z,999.16
2019-01-29T11:11:36.197Z,999.16
2019-01-29T11:12:36.182Z,999.16
2019-01-29T11:13:36.196Z,999.16
2019-01-29T11:14:36.212Z,999.17
2019-01-29T11:15:36.222Z,999.16
2019-01-29T11:16:36.240Z,999.23
2019-01-29T11:18:36.264Z,999.19
2019-01-29T11:19:36.278Z,999.23
2019-01-29T11:20:36.291Z,999.24
2019-01-29T11:21:36.306Z,999.19
2019-01-29T11:22:36.318Z,999.22
2019-01-29T11:23:36.332Z,999.25
2019-01-29T11:24:36.346Z,999.2
2019-01-29T11:25:36.360Z,999.17
2019-01-29T11:26:36.372Z,999.17
2019-01-29T11:27:36.390Z,999.2
2019-01-29T11:28:36.400Z,999.19
2019-01-29T11:29:36.415Z,999.17
2019-01-29T11:30:36.427Z,999.14
2019-01-29T11:31:36.442Z,999.18
2019-01-29T11:32:36.458Z,999.2
2019-01-29T11:34:36.483Z,999.15
2019-01-29T11:35:36.496Z,999.14
2019-01-29T11:36:36.510Z,999.16
2019-01-29T11:37:36.524Z,999.15
2019-01-29T11:38:36.542Z,999.16
2019-01-29T11:39:36.552Z,999.19
2019-01-29T11:40:36.566Z,999.17
2019-01-29T11:41:36.579Z,999.21
2019-01-29T11:42:36.593Z,999.17
2019-01-29T11:43:36.607Z,999.17
2019-01-29T11:44:36.620Z,999.19
2019-01-29T11:45:36.634Z,999.2
2019-01-29T11:46:36.648Z,999.21
2019-01-29T11:47:36.662Z,999.26
2019-01-29T11:48:36.675Z,999.23
2019-01-29T11:50:36.704Z,999.18
2019-01-29T11:51:36.718Z,999.18
2019-01-29T11:52:36.731Z,999.21
2019-01-29T11:53:36.744Z,999.19
2019-01-29T11:54:36.759Z,999.2
2019-01-29T11:55:36.771Z,999.24
2019-01-29T11:56:36.785Z,999.3
2019-01-29T11:57:36.799Z,999.21
2019-01-29T11:58:36.813Z,999.21
2019-01-29T11:59:36.826Z,999.27
2019-01-29T12:00:36.841Z,999.29
2019-01-29T12:01:36.854Z,999.25
2019-01-29T12:02:36.868Z,999.28
2019-01-29T12:03:36.882Z,999.31
2019-01-29T12:05:36.910Z,999.27
2019-01-29T12:06:36.923Z,999.26
2019-01-29T12:07:36.938Z,999.33
2019-01-29T12:08:36.952Z,999.35
2019-01-29T12:09:36.966Z,999.32
2019-01-29T12:10:36.978Z,999.33
2019-01-29T12:11:36.993Z,999.3
2019-01-29T12:12:37.007Z,999.32
2019-01-29T12:13:37.020Z,999.26
2019-01-29T12:14:37.034Z,999.3
2019-01-29T12:15:37.048Z,999.32
2019-01-29T12:16:37.062Z,999.35
2019-01-29T12:17:37.074Z,999.33
2019-01-29T12:18:37.090Z,999.33
2019-01-29T12:19:37.103Z,999.36
2019-01-29T12:20:37.117Z,999.36
2019-01-29T12:21:37.130Z,999.38
2019-01-29T12:22:37.144Z,999.33
2019-01-29T12:23:37.158Z,999.37
2019-01-29T12:24:37.172Z,999.34
2019-01-29T12:25:37.185Z,999.34
2019-01-29T12:26:37.199Z,999.31
2019-01-29T12:27:37.213Z,999.3
2019-01-29T12:28:37.234Z,999.37
2019-01-29T12:29:37.243Z,999.33
2019-01-29T12:30:37.316Z,999.4
2019-01-29T12:31:37.269Z,999.35
2019-01-29T12:32:37.282Z,999.33
2019-01-29T12:33:37.297Z,999.35
2019-01-29T12:34:37.309Z,999.38
2019-01-29T12:35:37.324Z,999.32
2019-01-29T12:37:37.351Z,999.36
2019-01-29T12:38:37.365Z,999.35
2019-01-29T12:39:37.379Z,999.31
2019-01-29T12:40:37.395Z,999.38
2019-01-29T12:41:37.410Z,999.37
2019-01-29T12:42:37.421Z,999.3
2019-01-29T12:43:37.434Z,999.37
2019-01-29T12:44:37.449Z,999.32
2019-01-29T12:45:37.463Z,999.28
2019-01-29T12:46:37.476Z,999.31
2019-01-29T12:47:37.490Z,999.33
2019-01-29T12:48:37.507Z,999.32
2019-01-29T12:49:37.520Z,999.31
2019-01-29T12:50:37.534Z,999.32
2019-01-29T12:51:37.548Z,999.3
2019-01-29T12:53:37.576Z,999.29
2019-01-29T12:54:37.590Z,999.28
2019-01-29T12:55:37.604Z,999.28
2019-01-29T12:56:37.620Z,999.3
2019-01-29T12:57:37.632Z,999.31
2019-01-29T12:58:37.649Z,999.3
2019-01-29T12:59:37.662Z,999.31
2019-01-29T13:00:37.677Z,999.36
2019-01-29T13:01:37.755Z,999.31
2019-01-29T13:02:37.704Z,999.32
2019-01-29T13:03:37.719Z,999.3
2019-01-29T13:04:37.781Z,999.34
2019-01-29T13:05:37.749Z,999.31
2019-01-29T13:06:37.763Z,999.32
2019-01-29T13:07:37.779Z,999.28
2019-01-29T13:09:37.808Z,999.26
2019-01-29T13:10:37.845Z,999.26
2019-01-29T13:11:37.837Z,999.26
2019-01-29T13:12:37.851Z,999.23
2019-01-29T13:13:37.868Z,999.2